Time;durP1;ratioP1;P1;durP2;ratioP2;P2;SDS_P1;SDS_P2;PMS_P1;PMS_P2;Temp;Humidity;BMP_temperature;BMP_pressure;BME280_temperature;BME280_humidity;BME280_pressure;Samples;Min_cycle;Max_cycle;Signal;HPM_P1;HPM_P2
2022/11/18 00:00:14;;;;;;;2.63;1.13;;;;;;;18.97;48.94;99406.72;4990465;28;20539;-66
2022/11/18 00:02:39;;;;;;;4.43;1.30;;;;;;;18.88;49.04;99401.59;4990424;28;20322;-66
2022/11/18 00:05:04;;;;;;;4.13;1.37;;;;;;;18.90;48.65;99412.81;4993747;28;20040;-67
2022/11/18 00:07:29;;;;;;;3.72;1.42;;;;;;;18.92;48.49;99410.84;4994299;28;20303;-67
2022/11/18 00:09:55;;;;;;;2.45;1.10;;;;;;;18.91;48.62;99417.94;4994110;28;20112;-69
2022/11/18 00:15:04;;;;;;;3.30;1.10;;;;;;;18.87;48.50;99416.63;4993737;28;20091;-67
2022/11/18 00:17:31;;;;;;;3.88;1.38;;;;;;;18.84;48.62;99414.31;4993853;28;20467;-67
2022/11/18 00:19:56;;;;;;;3.58;1.45;;;;;;;18.79;48.45;99412.13;4993772;28;20038;-68
2022/11/18 00:22:21;;;;;;;5.15;1.40;;;;;;;18.82;48.82;99421.56;4992110;28;20385;-68
2022/11/18 00:24:47;;;;;;;3.93;1.50;;;;;;;18.78;48.71;99412.28;4993845;28;20498;-67
2022/11/18 00:27:12;;;;;;;2.83;1.20;;;;;;;18.79;48.42;99420.06;4994775;28;20271;-68
2022/11/18 00:29:37;;;;;;;2.92;1.17;;;;;;;18.78;48.54;99422.84;4993947;28;20276;-70
2022/11/18 00:32:03;;;;;;;3.45;1.02;;;;;;;18.78;48.10;99426.31;4993784;28;20181;-70
2022/11/18 00:34:28;;;;;;;4.47;1.30;;;;;;;18.73;48.36;99423.34;4993228;28;20088;-67
2022/11/18 00:36:53;;;;;;;3.88;1.20;;;;;;;18.72;48.50;99437.50;4994088;28;20473;-67
2022/11/18 00:39:19;;;;;;;2.88;1.10;;;;;;;18.71;48.46;99433.25;4993351;28;20037;-71
2022/11/18 00:44:30;;;;;;;2.95;1.10;;;;;;;18.66;48.31;99432.91;4993410;28;20041;-68
2022/11/18 00:46:55;;;;;;;3.00;1.20;;;;;;;18.69;48.35;99448.38;4993174;28;20026;-67
2022/11/18 00:49:21;;;;;;;2.88;1.15;;;;;;;18.66;48.27;99446.91;4993476;28;20072;-68
2022/11/18 00:51:46;;;;;;;3.08;1.20;;;;;;;18.68;48.33;99452.03;4999929;28;20079;-69
2022/11/18 00:54:12;;;;;;;3.97;1.40;;;;;;;18.64;48.26;99450.69;4993914;28;20034;-71
2022/11/18 00:56:37;;;;;;;3.42;1.25;;;;;;;18.63;48.41;99451.69;4993374;28;20146;-69
2022/11/18 00:59:02;;;;;;;3.20;1.27;;;;;;;18.64;48.47;99464.72;4993067;28;20041;-69
2022/11/18 01:01:28;;;;;;;3.10;1.23;;;;;;;18.64;48.18;99467.38;4993029;28;20038;-66
2022/11/18 01:03:53;;;;;;;3.45;1.10;;;;;;;18.64;47.94;99471.81;4992913;28;20041;-70
2022/11/18 01:06:19;;;;;;;3.20;1.20;;;;;;;18.60;48.20;99470.50;4993170;28;20144;-68
2022/11/18 01:08:44;;;;;;;4.90;1.50;;;;;;;18.60;48.21;99471.31;4992896;28;20038;-70
2022/11/18 01:13:53;;;;;;;2.63;1.15;;;;;;;18.57;47.87;99484.00;4992297;28;20048;-67
2022/11/18 01:16:21;;;;;;;3.65;1.23;;;;;;;18.56;48.18;99485.78;4992779;28;20049;-67
2022/11/18 01:18:47;;;;;;;3.60;1.40;;;;;;;18.59;48.35;99496.03;4993796;28;20046;-67
2022/11/18 01:21:12;;;;;;;3.45;1.40;;;;;;;18.59;47.90;99490.75;4994143;28;20053;-67
2022/11/18 01:23:37;;;;;;;2.92;1.10;;;;;;;18.54;47.87;99490.41;4993304;28;20026;-66
2022/11/18 01:26:14;;;;;;;2.88;1.20;;;;;;;18.55;47.73;99492.06;4992428;28;20470;-68
2022/11/18 01:28:39;;;;;;;4.30;1.50;;;;;;;18.52;47.84;99492.41;4992917;28;20463;-70
2022/11/18 01:31:08;;;;;;;3.60;1.13;;;;;;;18.57;48.04;99510.38;4992488;28;20040;-68
2022/11/18 01:33:33;;;;;;;3.17;1.15;;;;;;;18.54;47.90;99506.25;4992290;28;20121;-67
2022/11/18 01:35:59;;;;;;;2.40;1.10;;;;;;;18.52;48.10;99504.75;4992613;28;20118;-68
2022/11/18 01:38:24;;;;;;;3.40;1.30;;;;;;;18.53;47.87;99509.03;4992948;28;21407;-67
2022/11/18 01:40:50;;;;;;;3.00;1.15;;;;;;;18.52;47.85;99516.13;4992609;28;20034;-67
2022/11/18 01:43:18;;;;;;;3.33;1.30;;;;;;;18.42;48.11;99502.22;4991910;28;20038;-67
2022/11/18 01:45:46;;;;;;;2.85;1.20;;;;;;;18.47;47.98;99508.69;4992382;28;20088;-67
2022/11/18 01:48:17;;;;;;;4.40;1.27;;;;;;;18.52;47.94;99525.84;4992797;28;20541;-68
2022/11/18 01:50:55;;;;;;;3.47;1.20;;;;;;;18.52;48.07;99533.75;4992058;28;20101;-67
2022/11/18 01:53:24;;;;;;;2.20;0.85;;;;;;;18.48;47.92;99523.56;5007617;28;20724;-66
2022/11/18 01:55:52;;;;;;;3.65;1.30;;;;;;;18.45;48.11;99521.22;4991884;28;20054;-66
2022/11/18 01:58:24;;;;;;;3.38;1.00;;;;;;;18.50;47.74;99533.94;4998857;28;20562;-68
2022/11/18 02:00:49;;;;;;;3.17;1.10;;;;;;;18.43;48.03;99525.81;4991877;28;20041;-68
2022/11/18 02:03:16;;;;;;;2.95;1.13;;;;;;;18.48;47.87;99538.53;4992470;28;20030;-68
2022/11/18 02:05:44;;;;;;;3.72;1.17;;;;;;;18.45;47.90;99537.06;4991901;28;20526;-67
2022/11/18 02:08:10;;;;;;;4.20;1.35;;;;;;;18.44;47.93;99538.03;4991641;28;20030;-67
2022/11/18 02:10:35;;;;;;;3.13;1.30;;;;;;;18.44;48.06;99545.94;4991165;28;20056;-68
2022/11/18 02:13:01;;;;;;;3.23;1.00;;;;;;;18.41;47.79;99535.72;4991760;28;20030;-68
2022/11/18 02:15:45;;;;;;;2.63;1.02;;;;;;;18.39;47.89;99542.97;4991870;28;20831;-68
2022/11/18 02:18:51;;;;;;;3.60;1.13;;;;;;;18.45;47.94;99547.59;4992058;28;20152;-67
2022/11/18 02:21:29;;;;;;;3.75;1.23;;;;;;;18.44;48.10;99551.22;4989738;28;20494;-68
2022/11/18 02:24:17;;;;;;;3.80;1.10;;;;;;;18.44;48.25;99559.13;4990499;28;20117;-69
2022/11/18 02:27:10;;;;;;;3.65;1.10;;;;;;;18.44;48.02;99561.78;4984348;28;20050;-67
2022/11/18 02:29:42;;;;;;;2.42;1.10;;;;;;;18.45;48.15;99563.44;4991482;28;20036;-68
2022/11/18 02:32:23;;;;;;;2.47;1.08;;;;;;;18.45;48.19;99562.59;4991392;28;20045;-68
2022/11/18 02:35:10;;;;;;;2.63;1.10;;;;;;;18.42;48.01;99557.63;4990823;28;20081;-67
2022/11/18 02:37:44;;;;;;;1.88;0.90;;;;;;;18.45;48.20;99563.44;4991421;28;20048;-67
2022/11/18 02:40:15;;;;;;;;;;;;;;;18.44;48.14;99569.69;4991549;28;20034;-67
2022/11/18 02:42:44;;;;;;;2.88;1.17;;;;;;;18.46;47.88;99570.34;4991126;28;19924;-67
2022/11/18 02:45:14;;;;;;;4.32;1.20;;;;;;;18.43;48.18;99570.66;4990836;28;20038;-68
2022/11/18 02:47:44;;;;;;;2.72;1.10;;;;;;;18.42;47.92;99573.44;4989862;28;20069;-67
2022/11/18 02:50:12;;;;;;;3.75;1.30;;;;;;;18.43;47.92;99578.56;4990058;28;20029;-67
2022/11/18 02:52:38;;;;;;;4.13;1.30;;;;;;;18.45;48.21;99586.34;4989995;28;20517;-69
2022/11/18 02:55:08;;;;;;;2.33;1.00;;;;;;;18.44;48.07;99585.50;4989982;28;20913;-68
2022/11/18 02:57:35;;;;;;;2.65;1.00;;;;;;;18.45;47.91;99592.47;4990407;28;20045;-67
2022/11/18 03:00:00;;;;;;;3.85;1.17;;;;;;;18.46;47.77;99588.00;4989568;28;20057;-68
2022/11/18 03:02:26;;;;;;;2.58;0.93;;;;;;;18.41;48.03;99591.09;4989511;28;20486;-68
2022/11/18 03:04:55;;;;;;;2.75;1.08;;;;;;;18.45;48.03;99591.59;4989842;28;20048;-68
2022/11/18 03:07:30;;;;;;;2.85;1.10;;;;;;;18.45;47.92;99599.53;4990552;28;20124;-67
2022/11/18 03:09:58;;;;;;;2.38;1.10;;;;;;;18.43;48.12;99591.75;4990697;28;20063;-69
2022/11/18 03:12:36;;;;;;;2.38;1.00;;;;;;;18.40;47.80;99584.16;4990863;28;20112;-67
2022/11/18 03:15:04;;;;;;;3.30;1.20;;;;;;;18.44;47.73;99603.16;4990938;28;20080;-70
2022/11/18 03:17:35;;;;;;;2.50;0.85;;;;;;;18.42;47.88;99605.97;4991013;28;20038;-68
2022/11/18 03:20:25;;;;;;;2.97;1.13;;;;;;;18.41;47.84;99609.56;4991397;28;20041;-70
2022/11/18 03:23:13;;;;;;;2.05;0.93;;;;;;;18.38;48.27;99607.25;4991204;28;20112;-68
2022/11/18 03:26:05;;;;;;;3.22;1.17;;;;;;;18.34;47.97;99599.78;4984368;28;20054;-67
2022/11/18 03:28:52;;;;;;;2.75;1.05;;;;;;;18.36;47.94;99608.38;4991595;28;20045;-67
2022/11/18 03:31:25;;;;;;;2.78;1.10;;;;;;;18.34;47.99;99612.97;4991401;28;20034;-66
2022/11/18 03:33:58;;;;;;;2.75;1.10;;;;;;;18.34;48.07;99613.81;4990742;28;20488;-68
2022/11/18 03:36:28;;;;;;;2.42;0.80;;;;;;;18.32;47.80;99610.50;4990623;28;20049;-67
2022/11/18 03:38:57;;;;;;;1.75;0.90;;;;;;;18.32;47.97;99615.78;4992542;28;20042;-67
2022/11/18 03:41:25;;;;;;;3.25;1.00;;;;;;;18.36;48.03;99627.69;4994888;28;20077;-69
2022/11/18 03:44:00;;;;;;;3.65;1.10;;;;;;;18.30;48.10;99621.19;4993296;28;20037;-70
2022/11/18 03:46:42;;;;;;;2.65;1.00;;;;;;;18.36;47.77;99632.09;4994968;28;20034;-69
2022/11/18 03:49:13;;;;;;;3.10;1.00;;;;;;;18.34;47.71;99636.72;4995031;28;20045;-68
2022/11/18 03:51:43;;;;;;;4.32;1.30;;;;;;;18.30;47.96;99639.66;4994830;28;20029;-67
2022/11/18 03:54:14;;;;;;;2.38;0.90;;;;;;;18.29;48.07;99645.94;4994061;28;20073;-67
2022/11/18 03:56:46;;;;;;;3.45;1.20;;;;;;;18.33;48.24;99656.19;4993772;28;20046;-67
2022/11/18 03:59:20;;;;;;;2.70;0.90;;;;;;;18.33;48.07;99658.81;4994819;28;20038;-67
2022/11/18 04:01:54;;;;;;;2.60;1.08;;;;;;;18.28;48.06;99648.72;4994749;28;20034;-65
2022/11/18 04:04:23;;;;;;;2.53;0.88;;;;;;;18.27;47.98;99644.44;4994064;28;20093;-66
2022/11/18 04:06:57;;;;;;;1.90;0.90;;;;;;;18.31;48.07;99662.44;4993942;28;20026;-69
2022/11/18 04:09:28;;;;;;;1.95;1.05;;;;;;;18.32;48.22;99668.53;4994019;28;20141;-67
2022/11/18 04:12:03;;;;;;;2.35;1.00;;;;;;;18.27;47.82;99661.06;4994064;28;20038;-69
2022/11/18 04:14:37;;;;;;;3.03;1.10;;;;;;;18.30;47.92;99673.13;4994331;28;20083;-66
2022/11/18 04:17:14;;;;;;;2.03;0.80;;;;;;;18.25;47.80;99670.94;4994049;28;20046;-66
2022/11/18 04:19:40;;;;;;;3.22;1.05;;;;;;;18.31;48.05;99677.44;4993889;28;20046;-65
2022/11/18 04:22:06;;;;;;;2.70;1.10;;;;;;;18.30;47.94;99675.78;4993576;28;20030;-67
2022/11/18 04:24:32;;;;;;;3.50;1.00;;;;;;;18.31;47.76;99680.06;4993662;28;20471;-69
2022/11/18 04:26:57;;;;;;;2.83;1.20;;;;;;;18.29;47.88;99679.38;4993820;28;20030;-67
2022/11/18 04:29:23;;;;;;;3.20;0.98;;;;;;;18.30;47.75;99687.13;4994122;28;20080;-67
2022/11/18 04:31:48;;;;;;;2.33;0.98;;;;;;;18.32;47.52;99692.25;4993650;28;20060;-67
2022/11/18 04:34:13;;;;;;;3.50;1.00;;;;;;;18.27;47.62;99684.81;4994093;28;20146;-69
2022/11/18 04:36:38;;;;;;;2.60;1.02;;;;;;;18.27;47.73;99686.63;4993708;28;20072;-69
2022/11/18 04:39:04;;;;;;;2.22;0.80;;;;;;;18.27;47.68;99687.44;4992802;28;20028;-67
2022/11/18 04:44:13;;;;;;;2.47;1.08;;;;;;;18.23;47.92;99696.66;4993768;28;20045;-69
2022/11/18 04:46:42;;;;;;;2.28;0.80;;;;;;;18.24;47.72;99700.94;4993232;28;20042;-67
2022/11/18 04:49:12;;;;;;;2.45;1.00;;;;;;;18.27;47.45;99708.53;4992429;28;20053;-67
2022/11/18 04:51:38;;;;;;;2.85;0.95;;;;;;;18.23;47.47;99706.34;4992615;28;20395;-67
2022/11/18 04:54:03;;;;;;;2.58;1.10;;;;;;;18.22;47.44;99708.19;4993298;28;20040;-68
2022/11/18 04:56:29;;;;;;;2.90;1.00;;;;;;;18.19;47.67;99705.84;4993399;28;20069;-67
2022/11/18 04:58:54;;;;;;;2.20;1.10;;;;;;;18.25;47.54;99717.59;4993797;28;20036;-68
2022/11/18 05:01:19;;;;;;;2.92;1.08;;;;;;;18.25;47.53;99722.88;4992943;28;20112;-70
2022/11/18 05:03:45;;;;;;;2.35;1.00;;;;;;;18.25;47.22;99726.34;4993073;28;20826;-67
2022/11/18 05:06:10;;;;;;;3.20;1.23;;;;;;;18.22;47.67;99723.19;4992330;28;20113;-66
2022/11/18 05:08:35;;;;;;;2.33;1.00;;;;;;;18.21;47.16;99722.34;4993175;28;20497;-68
2022/11/18 05:13:50;;;;;;;2.42;1.02;;;;;;;18.23;47.29;99738.84;4992956;28;20330;-68
2022/11/18 05:16:15;;;;;;;2.83;1.00;;;;;;;18.15;47.46;99728.25;4992071;28;20482;-71
2022/11/18 05:18:40;;;;;;;3.13;1.20;;;;;;;18.19;47.29;99732.22;4992791;28;20203;-67
2022/11/18 05:21:06;;;;;;;1.75;0.90;;;;;;;18.21;47.36;99742.63;4992802;28;20476;-68
2022/11/18 05:23:32;;;;;;;2.90;0.95;;;;;;;18.23;47.40;99745.91;4991919;28;20047;-68
2022/11/18 05:25:57;;;;;;;2.33;1.00;;;;;;;18.22;47.10;99746.91;4992789;28;20038;-70
2022/11/18 05:28:22;;;;;;;2.87;1.10;;;;;;;18.18;47.40;99745.53;4992959;28;20038;-67
2022/11/18 05:30:47;;;;;;;3.17;1.30;;;;;;;18.16;47.30;99747.53;4992811;28;20260;-69
2022/11/18 05:33:13;;;;;;;3.75;1.08;;;;;;;18.15;47.10;99744.06;4992538;28;20279;-67
2022/11/18 05:35:38;;;;;;;2.50;0.90;;;;;;;18.19;47.35;99752.50;4992292;28;20100;-68
2022/11/18 05:38:03;;;;;;;3.30;1.02;;;;;;;18.18;46.95;99756.09;4992953;28;20278;-69
2022/11/18 05:40:28;;;;;;;2.92;1.10;;;;;;;18.11;47.15;99753.25;4992960;28;20445;-67
2022/11/18 05:43:11;;;;;;;2.25;0.98;;;;;;;18.14;46.90;99758.22;4992774;28;20030;-69
2022/11/18 05:45:38;;;;;;;2.85;1.00;;;;;;;18.10;47.13;99760.34;4992429;28;20041;-68
2022/11/18 05:48:04;;;;;;;2.63;1.00;;;;;;;18.12;47.24;99768.09;4992152;28;20061;-68
2022/11/18 05:50:30;;;;;;;3.20;1.23;;;;;;;18.15;47.11;99773.06;4992655;28;20250;-67
2022/11/18 05:52:56;;;;;;;2.78;1.00;;;;;;;18.10;46.97;99772.66;4992779;28;20120;-67
2022/11/18 05:55:26;;;;;;;3.08;1.05;;;;;;;18.10;47.09;99776.16;4992366;28;20058;-67
2022/11/18 05:57:51;;;;;;;2.42;0.95;;;;;;;18.12;47.26;99778.63;4992349;28;20038;-67
2022/11/18 06:00:17;;;;;;;2.42;0.93;;;;;;;18.10;47.17;99786.69;4992097;28;21006;-68
2022/11/18 06:02:45;;;;;;;2.22;0.90;;;;;;;18.11;47.07;99782.25;4991121;28;20041;-67
2022/11/18 06:05:12;;;;;;;3.05;1.10;;;;;;;18.14;47.20;99795.13;4991740;28;20038;-67
2022/11/18 06:07:41;;;;;;;2.35;1.00;;;;;;;18.15;46.83;99796.81;4992494;28;20061;-68
2022/11/18 06:10:12;;;;;;;2.20;1.02;;;;;;;18.11;46.78;99790.16;4992376;28;20124;-68
2022/11/18 06:12:43;;;;;;;2.78;1.00;;;;;;;18.11;47.15;99788.34;4991931;28;20114;-68
2022/11/18 06:15:15;;;;;;;2.67;1.08;;;;;;;18.08;47.47;99786.00;4991214;28;20068;-66
2022/11/18 06:18:03;;;;;;;2.90;1.10;;;;;;;18.15;47.57;99798.59;4991403;28;20095;-70
2022/11/18 06:20:29;;;;;;;2.55;1.02;;;;;;;18.20;47.74;99807.72;4991646;28;20055;-68
2022/11/18 06:22:57;;;;;;;2.30;1.02;;;;;;;18.22;47.80;99816.31;4992287;28;20045;-67
2022/11/18 06:25:22;;;;;;;2.45;1.13;;;;;;;18.22;47.82;99810.22;4991486;28;20478;-67
2022/11/18 06:27:50;;;;;;;3.05;1.17;;;;;;;18.28;47.55;99823.63;4991078;28;20041;-67
2022/11/18 06:30:16;;;;;;;2.47;0.90;;;;;;;18.31;47.39;99825.13;4992056;28;20088;-66
2022/11/18 06:32:41;;;;;;;3.22;0.90;;;;;;;18.31;47.45;99825.97;4991580;28;20030;-68
2022/11/18 06:35:07;;;;;;;3.65;1.02;;;;;;;18.39;47.46;99833.13;4991761;28;20426;-66
2022/11/18 06:37:35;;;;;;;2.42;1.00;;;;;;;18.39;47.65;99830.47;4991620;28;20037;-68
2022/11/18 06:40:00;;;;;;;2.50;0.90;;;;;;;18.37;47.64;99823.69;4990691;28;20034;-66
2022/11/18 06:45:13;;;;;;;2.22;0.90;;;;;;;18.49;47.66;99846.22;4991636;28;20061;-69
2022/11/18 06:47:38;;;;;;;2.05;0.80;;;;;;;18.53;47.58;99849.38;4991377;28;20030;-69
2022/11/18 06:50:04;;;;;;;2.03;0.80;;;;;;;18.58;47.41;99857.66;4991331;28;20078;-66
2022/11/18 06:52:29;;;;;;;2.05;0.85;;;;;;;18.56;47.30;99854.38;4991161;28;20040;-66
2022/11/18 06:54:54;;;;;;;3.03;1.38;;;;;;;18.57;47.55;99856.03;4991042;28;20045;-68
2022/11/18 06:57:20;;;;;;;3.00;0.90;;;;;;;18.61;47.22;99867.94;4991462;28;20459;-69
2022/11/18 06:59:45;;;;;;;1.33;0.70;;;;;;;18.64;47.30;99873.75;4991229;28;20286;-68
2022/11/18 07:02:10;;;;;;;2.47;0.90;;;;;;;18.64;47.35;99868.47;4991033;28;20329;-67
2022/11/18 07:04:38;;;;;;;2.35;0.80;;;;;;;18.62;47.42;99870.41;4991160;28;20319;-68
2022/11/18 07:07:04;;;;;;;1.60;0.90;;;;;;;18.64;47.11;99871.13;4991472;28;20041;-68
2022/11/18 07:09:30;;;;;;;2.60;0.98;;;;;;;18.66;47.21;99876.25;4991018;28;20046;-66
2022/11/18 07:11:55;;;;;;;2.50;1.00;;;;;;;18.71;46.96;99887.16;4991239;28;20030;-67
2022/11/18 07:14:20;;;;;;;3.00;1.00;;;;;;;18.71;47.11;99884.53;4994982;28;20322;-69
2022/11/18 07:16:46;;;;;;;2.15;1.00;;;;;;;18.72;47.36;99885.34;4995127;28;20056;-67
2022/11/18 07:19:12;;;;;;;2.80;1.00;;;;;;;18.73;47.25;99890.47;4995288;28;20045;-69
2022/11/18 07:21:39;;;;;;;2.85;0.95;;;;;;;18.74;47.30;99897.44;4995527;28;20671;-67
2022/11/18 07:24:10;;;;;;;3.72;1.10;;;;;;;18.72;47.01;99896.72;4994820;28;20042;-66
2022/11/18 07:26:35;;;;;;;1.10;0.70;;;;;;;18.71;47.12;99894.22;4995393;28;20113;-67
2022/11/18 07:29:01;;;;;;;1.90;0.90;;;;;;;18.74;47.07;99901.84;4995129;28;20121;-67
2022/11/18 07:31:27;;;;;;;4.55;1.20;;;;;;;18.74;46.26;99899.22;4994869;28;20065;-67
2022/11/18 07:33:53;;;;;;;2.88;1.10;;;;;;;18.71;46.44;99903.00;4995080;28;20076;-68
2022/11/18 07:36:21;;;;;;;2.45;1.33;;;;;;;18.76;46.66;99913.13;4994731;28;20037;-66
2022/11/18 07:38:47;;;;;;;3.65;0.98;;;;;;;18.75;46.52;99912.25;4994240;28;20026;-68
2022/11/18 07:41:18;;;;;;;1.75;0.90;;;;;;;18.75;46.59;99914.91;4994640;28;20471;-66
2022/11/18 07:43:43;;;;;;;2.13;1.05;;;;;;;18.71;46.69;99921.47;4994332;28;20038;-67
2022/11/18 07:46:15;;;;;;;2.40;0.90;;;;;;;18.79;46.90;99933.94;4994799;28;20109;-69
2022/11/18 07:48:42;;;;;;;2.22;0.90;;;;;;;18.75;46.72;99924.63;4994810;28;20037;-69
2022/11/18 07:51:08;;;;;;;3.13;1.27;;;;;;;18.80;46.77;99938.22;4994472;28;20120;-68
2022/11/18 07:53:34;;;;;;;4.00;1.30;;;;;;;18.79;46.78;99933.94;4994306;28;20174;-68
2022/11/18 07:55:59;;;;;;;2.90;1.08;;;;;;;18.78;46.94;99946.28;4994971;28;20070;-67
2022/11/18 07:58:24;;;;;;;4.68;1.08;;;;;;;18.79;46.99;99950.59;4994717;28;20030;-67
2022/11/18 08:00:50;;;;;;;3.10;1.20;;;;;;;18.70;46.98;99932.19;4994456;28;20038;-66
2022/11/18 08:03:15;;;;;;;3.65;1.08;;;;;;;18.80;46.93;99954.91;4994369;28;20050;-67
2022/11/18 08:05:40;;;;;;;3.40;1.20;;;;;;;18.81;46.99;99955.72;4994056;28;20066;-67
2022/11/18 08:08:05;;;;;;;3.13;1.20;;;;;;;18.80;47.24;99954.91;4994201;28;20252;-67
2022/11/18 08:10:31;;;;;;;3.33;1.00;;;;;;;18.77;46.81;99951.72;4994714;28;20359;-67
2022/11/18 08:12:56;;;;;;;1.92;0.82;;;;;;;18.82;47.12;99963.47;4993586;28;21197;-70
2022/11/18 08:15:23;;;;;;;2.33;0.93;;;;;;;18.80;46.72;99968.09;4994317;28;20030;-70
2022/11/18 08:17:48;;;;;;;2.97;1.02;;;;;;;18.83;46.90;99970.44;4993812;28;20045;-67
2022/11/18 08:20:14;;;;;;;3.90;1.13;;;;;;;18.79;46.99;99968.25;4994111;28;20042;-65
2022/11/18 08:22:39;;;;;;;3.30;1.20;;;;;;;18.81;47.25;99977.66;4993480;28;20139;-69
2022/11/18 08:25:05;;;;;;;4.45;1.13;;;;;;;18.85;47.18;99983.53;4993034;28;20235;-67
2022/11/18 08:27:31;;;;;;;3.50;0.95;;;;;;;18.85;47.15;99983.53;4993301;28;20037;-69
2022/11/18 08:29:56;;;;;;;3.03;1.10;;;;;;;18.88;47.15;99992.94;5000976;28;20090;-67
2022/11/18 08:32:21;;;;;;;6.90;1.20;;;;;;;18.84;47.11;99987.94;4993700;28;20045;-68
2022/11/18 08:34:47;;;;;;;3.08;1.00;;;;;;;18.90;47.33;99988.31;4993622;28;20034;-66
2022/11/18 08:37:12;;;;;;;2.90;1.10;;;;;;;18.93;47.23;99993.31;4993396;28;20080;-67
2022/11/18 08:39:37;;;;;;;4.13;1.00;;;;;;;18.91;47.33;99990.81;4993377;28;20928;-68
2022/11/18 08:42:02;;;;;;;2.90;1.10;;;;;;;18.93;47.32;99990.66;4993586;28;20034;-68
2022/11/18 08:44:30;;;;;;;3.25;0.80;;;;;;;18.91;47.15;99987.34;4993599;28;20474;-71
2022/11/18 08:46:55;;;;;;;2.65;1.10;;;;;;;18.95;47.60;99994.00;4993552;28;20035;-72
2022/11/18 08:49:20;;;;;;;2.47;1.15;;;;;;;18.91;47.41;99990.81;5000375;28;20041;-71
2022/11/18 08:51:45;;;;;;;3.63;1.10;;;;;;;18.93;47.76;99995.94;4992805;28;20030;-67
2022/11/18 08:54:11;;;;;;;2.50;0.90;;;;;;;18.91;47.69;99993.44;4993433;28;20021;-68
2022/11/18 08:56:36;;;;;;;2.08;0.90;;;;;;;18.97;47.60;100002.59;4993385;28;20302;-68
2022/11/18 08:59:01;;;;;;;3.42;0.90;;;;;;;18.97;47.66;100003.41;4992950;28;20037;-68
2022/11/18 09:01:27;;;;;;;4.15;1.00;;;;;;;18.98;47.45;100010.38;4993112;28;20461;-68
2022/11/18 09:03:52;;;;;;;2.72;0.90;;;;;;;18.95;47.47;100007.19;4993186;28;20507;-68
2022/11/18 09:06:19;;;;;;;5.72;1.20;;;;;;;19.01;47.53;100014.53;4992583;28;20160;-66
2022/11/18 09:08:45;;;;;;;2.03;0.93;;;;;;;19.00;47.68;100011.03;4993415;28;20402;-68
2022/11/18 09:11:14;;;;;;;3.83;1.10;;;;;;;18.97;47.52;100007.88;4992820;28;20034;-69
2022/11/18 09:13:40;;;;;;;3.05;1.10;;;;;;;18.96;47.57;100019.41;4992812;28;20475;-68
2022/11/18 09:16:06;;;;;;;2.25;0.82;;;;;;;18.97;47.77;100016.63;4993176;28;20037;-70
2022/11/18 09:18:32;;;;;;;2.05;0.95;;;;;;;18.98;47.31;100020.09;4993097;28;20037;-68
2022/11/18 09:21:00;;;;;;;4.05;0.90;;;;;;;18.97;47.59;100013.16;4992828;28;20038;-69
2022/11/18 09:23:26;;;;;;;2.15;0.98;;;;;;;19.00;47.46;100026.06;4993301;28;20038;-69
2022/11/18 09:25:59;;;;;;;5.15;1.25;;;;;;;18.95;47.95;100021.22;4991590;28;20038;-67
2022/11/18 09:28:25;;;;;;;2.37;1.00;;;;;;;18.99;47.71;100029.66;4992740;28;20076;-68
2022/11/18 09:30:51;;;;;;;2.70;1.02;;;;;;;18.97;47.55;100036.91;4991998;28;20030;-69
2022/11/18 09:33:16;;;;;;;4.20;1.50;;;;;;;18.94;46.98;100039.84;4991911;28;20073;-68
2022/11/18 09:35:42;;;;;;;2.85;1.08;;;;;;;18.91;47.39;100034.88;4991344;28;20029;-71
2022/11/18 09:38:08;;;;;;;2.65;1.42;;;;;;;18.92;47.70;100041.81;4992200;28;20026;-67
2022/11/18 09:41:01;;;;;;;4.30;1.10;;;;;;;18.92;47.73;100049.75;4992161;28;20108;-68
2022/11/18 09:43:52;;;;;;;3.58;1.17;;;;;;;18.94;47.80;100053.06;5006691;28;20069;-68
2022/11/18 09:46:50;;;;;;;3.08;1.13;;;;;;;18.94;47.88;100068.91;4992361;28;20101;-66
2022/11/18 09:49:31;;;;;;;3.33;1.02;;;;;;;18.94;47.86;100061.81;4991238;28;20034;-66
2022/11/18 09:52:01;;;;;;;2.58;1.00;;;;;;;19.01;47.77;100075.25;4991198;28;20045;-68
2022/11/18 09:54:31;;;;;;;2.50;0.98;;;;;;;18.96;47.79;100073.06;4991927;28;20535;-67
2022/11/18 09:56:57;;;;;;;4.18;1.10;;;;;;;18.96;47.59;100077.50;4992590;28;20096;-66
2022/11/18 09:59:26;;;;;;;3.85;1.20;;;;;;;18.95;47.66;100076.69;4992557;28;20109;-67
2022/11/18 10:01:57;;;;;;;2.63;1.15;;;;;;;18.97;47.46;100090.53;4992411;28;20481;-67
2022/11/18 10:04:22;;;;;;;4.30;1.20;;;;;;;18.98;47.66;100088.75;4991916;28;20478;-69
2022/11/18 10:06:48;;;;;;;3.42;0.95;;;;;;;18.98;47.95;100089.59;4991338;28;20037;-68
2022/11/18 10:09:14;;;;;;;3.40;1.13;;;;;;;19.03;47.67;100099.69;4991610;28;20049;-67
2022/11/18 10:12:08;;;;;;;2.97;1.13;;;;;;;19.05;47.93;100096.91;4991823;28;20030;-67
2022/11/18 10:14:50;;;;;;;4.68;1.30;;;;;;;19.03;48.03;100089.13;4992182;28;20045;-68
2022/11/18 10:17:45;;;;;;;3.63;1.17;;;;;;;19.04;47.89;100101.34;4992115;28;20034;-70
2022/11/18 10:20:52;;;;;;;3.67;1.20;;;;;;;19.05;47.94;100099.56;4992099;28;20069;-67
2022/11/18 10:23:27;;;;;;;7.60;1.25;;;;;;;19.06;47.81;100102.03;4985879;28;20208;-66
2022/11/18 10:25:53;;;;;;;3.22;1.10;;;;;;;19.02;47.69;100096.22;4992201;28;20069;-67
2022/11/18 10:28:28;;;;;;;5.10;1.50;;;;;;;19.05;48.00;100107.47;4991759;28;20054;-68
2022/11/18 10:31:06;;;;;;;4.22;1.45;;;;;;;19.02;47.66;100105.94;4991944;28;20121;-68
2022/11/18 10:33:32;;;;;;;3.63;1.20;;;;;;;18.97;47.33;100109.03;4991221;28;20428;-66
2022/11/18 10:36:15;;;;;;;3.40;1.05;;;;;;;18.97;47.32;100110.84;4991433;28;20074;-66
2022/11/18 10:38:41;;;;;;;5.15;1.27;;;;;;;18.95;47.65;100110.19;4991211;28;20034;-67
2022/11/18 10:41:15;;;;;;;3.70;1.20;;;;;;;18.97;47.94;100122.22;4992041;28;20088;-67
2022/11/18 10:43:52;;;;;;;3.38;0.98;;;;;;;19.02;47.81;100114.69;4991685;28;20042;-67
2022/11/18 10:46:38;;;;;;;4.97;1.30;;;;;;;19.01;48.14;100115.69;4991934;28;20042;-65
2022/11/18 10:49:09;;;;;;;6.00;1.45;;;;;;;19.03;48.11;100123.47;4991073;28;20072;-66
2022/11/18 10:51:39;;;;;;;4.28;1.10;;;;;;;19.01;48.21;100126.25;4991401;28;21013;-66
2022/11/18 10:54:21;;;;;;;3.10;1.23;;;;;;;19.04;48.03;100122.47;4991353;28;20061;-66
2022/11/18 10:56:47;;;;;;;3.75;1.30;;;;;;;19.05;47.98;100129.44;4991086;28;20581;-67
2022/11/18 10:59:28;;;;;;;6.37;1.60;;;;;;;19.05;48.22;100126.78;4991315;28;20140;-66
2022/11/18 11:02:14;;;;;;;4.05;1.20;;;;;;;19.06;48.01;100128.47;4991633;28;20264;-67
2022/11/18 11:04:40;;;;;;;5.45;1.45;;;;;;;19.06;48.23;100131.09;4991159;28;20125;-69
2022/11/18 11:07:24;;;;;;;3.78;1.48;;;;;;;19.08;48.07;100136.22;4990868;28;20080;-65
2022/11/18 11:10:05;;;;;;;3.17;1.13;;;;;;;19.03;47.87;100126.94;4990690;28;20484;-67
2022/11/18 11:12:36;;;;;;;4.53;1.45;;;;;;;19.08;47.97;100139.69;4992470;28;20037;-67
2022/11/18 11:15:08;;;;;;;3.40;1.00;;;;;;;19.08;47.87;100142.34;4993219;28;20041;-71
2022/11/18 11:20:39;;;;;;;;;;;;;;;19.06;47.85;100138.16;4989630;28;20065;-68
2022/11/18 11:23:11;;;;;;;6.78;1.33;;;;;;;19.08;47.83;100139.69;4989284;28;19914;-68
2022/11/18 11:26:00;;;;;;;6.25;1.92;;;;;;;19.07;48.14;100147.75;5005734;28;20478;-69
2022/11/18 11:28:45;;;;;;;4.55;1.35;;;;;;;19.12;47.77;100143.72;4992875;28;20065;-71
2022/11/18 11:31:42;;;;;;;4.75;1.20;;;;;;;19.16;47.61;100145.06;4991747;28;20033;-70
2022/11/18 11:34:41;;;;;;;3.33;1.15;;;;;;;19.21;47.64;100136.69;4989808;28;20502;-72
2022/11/18 11:37:29;;;;;;;2.97;1.10;;;;;;;19.19;47.98;100136.84;4989093;28;20104;-68
2022/11/18 11:40:18;;;;;;;3.45;1.23;;;;;;;19.23;47.96;100150.56;4991012;28;20030;-69
2022/11/18 11:43:18;;;;;;;4.80;1.20;;;;;;;19.20;47.67;100149.09;4989764;28;20045;-71
2022/11/18 11:46:18;;;;;;;5.13;1.38;;;;;;;19.19;47.65;100149.22;4988637;28;20140;-70
2022/11/18 11:48:51;;;;;;;4.32;1.27;;;;;;;19.19;47.66;100143.94;4991014;28;20157;-71
2022/11/18 11:51:20;;;;;;;4.57;1.30;;;;;;;19.19;47.65;100151.88;4990965;28;20065;-71
2022/11/18 11:53:51;;;;;;;4.22;1.80;;;;;;;19.20;47.82;100158.78;4990453;28;20470;-69
2022/11/18 11:56:27;;;;;;;5.13;2.28;;;;;;;19.21;47.97;100160.47;4990446;28;20455;-70
2022/11/18 11:59:16;;;;;;;4.70;2.30;;;;;;;19.16;47.55;100158.28;4990883;28;20104;-72
2022/11/18 12:02:02;;;;;;;6.97;2.65;;;;;;;19.22;48.18;100162.13;4994911;28;20157;-73
2022/11/18 12:04:33;;;;;;;5.35;2.05;;;;;;;19.21;48.05;100160.47;4994237;28;20030;-69